Time;durP1;ratioP1;P1;durP2;ratioP2;P2;SDS_P1;SDS_P2;PMS_P1;PMS_P2;Temp;Humidity;BMP_temperature;BMP_pressure;BME280_temperature;BME280_humidity;BME280_pressure;Samples;Min_cycle;Max_cycle;Signal;HPM_P1;HPM_P2
2022/01/09 00:00:31;;;;;;;1999.90;999.90;;;;;;;0.19;92.34;162449.75;5049459;28;20085;-68
2022/01/09 00:02:58;;;;;;;1999.90;999.90;;;;;;;0.32;91.65;162485.31;5036321;28;20667;-68
2022/01/09 00:05:26;;;;;;;1999.90;999.90;;;;;;;0.23;92.12;162459.38;5049786;28;20044;-69
2022/01/09 00:07:53;;;;;;;1999.90;999.90;;;;;;;0.17;92.60;162444.31;5048211;28;20080;-70
2022/01/09 00:10:20;;;;;;;1999.90;999.90;;;;;;;0.48;91.74;162526.38;5047957;28;20045;-69
2022/01/09 00:12:47;;;;;;;1999.90;999.90;;;;;;;0.66;91.00;162575.59;5048650;28;20366;-69
2022/01/09 00:15:14;;;;;;;1999.90;999.90;;;;;;;0.73;90.48;162593.41;5047017;28;20094;-69
2022/01/09 00:17:41;;;;;;;1999.90;999.90;;;;;;;0.75;90.30;162598.84;5048121;28;20150;-69
2022/01/09 00:20:10;;;;;;;1999.90;999.90;;;;;;;0.20;92.97;162452.53;5049032;28;20171;-69
2022/01/09 00:22:45;;;;;;;1999.90;999.90;;;;;;;0.53;92.71;162540.03;5046748;28;20389;-69
2022/01/09 00:25:13;;;;;;;1999.90;999.90;;;;;;;0.12;94.11;162430.63;5048839;28;20044;-69
2022/01/09 00:27:40;;;;;;;1999.90;999.90;;;;;;;-0.02;95.34;162395.06;5050069;28;20138;-70
2022/01/09 00:30:09;;;;;;;1999.90;999.90;;;;;;;-0.07;96.78;162381.41;5047571;28;20057;-69
2022/01/09 00:32:36;;;;;;;1999.90;999.90;;;;;;;0.08;96.10;162419.72;5047330;28;20138;-69
2022/01/09 00:35:05;;;;;;;1999.90;999.90;;;;;;;-0.04;96.46;162389.63;5049599;28;20485;-70
2022/01/09 00:37:31;;;;;;;1999.90;999.90;;;;;;;0.30;95.74;162478.53;5048735;28;20067;-69
2022/01/09 00:39:58;;;;;;;1999.90;999.90;;;;;;;0.76;93.67;162601.59;5047248;28;20087;-69
2022/01/09 00:42:24;;;;;;;1999.90;999.90;;;;;;;0.28;95.62;162473.03;5048905;28;20392;-69
2022/01/09 00:44:51;;;;;;;1999.90;999.90;;;;;;;0.41;95.82;162508.56;5047605;28;20051;-69
2022/01/09 00:47:18;;;;;;;1999.90;999.90;;;;;;;0.41;95.35;162507.22;5047083;28;20422;-69
2022/01/09 00:49:44;;;;;;;1999.90;999.90;;;;;;;0.13;97.12;162434.72;5050021;28;20053;-68
2022/01/09 00:52:11;;;;;;;1999.90;999.90;;;;;;;-0.07;98.85;162381.41;5048173;28;20099;-69
2022/01/09 00:54:37;;;;;;;1999.90;999.90;;;;;;;0.26;97.73;162468.91;5047746;28;20142;-68
2022/01/09 00:57:04;;;;;;;1999.90;999.90;;;;;;;0.69;95.49;162583.78;5050117;28;20052;-69
2022/01/09 00:59:31;;;;;;;1999.90;999.90;;;;;;;0.65;95.30;162571.50;5047607;28;20110;-69
2022/01/09 01:01:57;;;;;;;1999.90;999.90;;;;;;;0.22;96.85;162456.63;5046494;28;20398;-69
2022/01/09 01:04:24;;;;;;;1999.90;999.90;;;;;;;0.48;96.88;162526.38;5047833;28;20049;-70
2022/01/09 01:06:51;;;;;;;1999.90;999.90;;;;;;;0.45;96.39;162518.16;5047125;28;20045;-69
2022/01/09 01:09:20;;;;;;;1999.90;999.90;;;;;;;0.68;95.59;162579.69;5046692;28;20476;-68
2022/01/09 01:11:47;;;;;;;1999.90;999.90;;;;;;;0.68;95.56;162579.69;5047275;28;20075;-69
2022/01/09 01:14:14;;;;;;;1999.90;999.90;;;;;;;0.37;96.69;162497.63;5047575;28;20060;-69
2022/01/09 01:16:41;;;;;;;1999.90;999.90;;;;;;;0.14;97.46;162436.13;5046045;28;20045;-69
2022/01/09 01:19:10;;;;;;;1999.90;999.90;;;;;;;0.28;98.11;162474.41;5047320;28;20049;-69
2022/01/09 01:21:37;;;;;;;1999.90;999.90;;;;;;;0.52;97.29;162538.69;5047605;28;20099;-69
2022/01/09 01:24:04;;;;;;;1999.90;999.90;;;;;;;0.76;96.55;162600.19;5046307;28;20067;-69
2022/01/09 01:26:30;;;;;;;1999.90;999.90;;;;;;;0.69;96.28;162582.44;5047600;28;20099;-68
2022/01/09 01:28:57;;;;;;;1999.90;999.90;;;;;;;0.83;95.65;162619.34;5047586;28;20512;-68
2022/01/09 01:31:23;;;;;;;1999.90;999.90;;;;;;;0.71;96.34;162587.91;5045403;28;20083;-69
2022/01/09 01:33:50;;;;;;;1999.90;999.90;;;;;;;0.86;95.18;162628.97;5046569;28;20086;-69
2022/01/09 01:36:16;;;;;;;1999.90;999.90;;;;;;;0.68;95.64;162581.03;5031189;28;20079;-69
2022/01/09 01:38:43;;;;;;;1999.90;999.90;;;;;;;0.50;97.20;162533.19;5045929;28;20060;-69
2022/01/09 01:41:09;;;;;;;1999.90;999.90;;;;;;;0.81;96.56;162613.91;5045755;28;20072;-68
2022/01/09 01:43:36;;;;;;;1999.90;999.90;;;;;;;0.98;95.76;162660.44;5047742;28;20095;-68
2022/01/09 01:46:03;;;;;;;1999.90;999.90;;;;;;;1.11;95.16;162693.25;5045067;28;20084;-68
2022/01/09 01:48:30;;;;;;;1999.90;999.90;;;;;;;1.04;95.25;162675.44;5047900;28;20453;-69
2022/01/09 01:50:57;;;;;;;1999.90;999.90;;;;;;;0.81;96.10;162613.91;5047795;28;20049;-69
2022/01/09 01:53:25;;;;;;;1999.90;999.90;;;;;;;1.25;94.82;162730.19;5046123;28;20069;-69
2022/01/09 01:55:55;;;;;;;1999.90;999.90;;;;;;;1.19;94.42;162716.53;5051170;28;20110;-69
2022/01/09 01:58:24;;;;;;;1999.90;999.90;;;;;;;1.15;95.56;162704.22;5047260;28;20057;-69
2022/01/09 02:00:50;;;;;;;1999.90;999.90;;;;;;;1.24;94.90;162728.84;5045176;28;20242;-69
2022/01/09 02:03:18;;;;;;;1999.90;999.90;;;;;;;1.21;94.72;162720.63;5046108;28;20045;-69
2022/01/09 02:05:46;;;;;;;1999.90;999.90;;;;;;;1.01;95.65;162667.25;5047314;28;20111;-69
2022/01/09 02:08:13;;;;;;;1999.90;999.90;;;;;;;1.23;95.71;162727.44;5046033;28;20045;-69
2022/01/09 02:10:42;;;;;;;1999.90;999.90;;;;;;;0.81;96.01;162613.91;5046025;28;20048;-70
2022/01/09 02:13:09;;;;;;;1999.90;999.90;;;;;;;1.04;95.78;162676.84;5047270;28;20346;-69
2022/01/09 02:15:39;;;;;;;1999.90;999.90;;;;;;;1.31;94.76;162748.00;5045715;28;20430;-69
2022/01/09 02:18:08;;;;;;;1999.90;999.90;;;;;;;1.54;93.46;162808.19;5044592;28;20055;-67
2022/01/09 02:20:37;;;;;;;1999.90;999.90;;;;;;;1.65;92.86;162836.94;5045823;28;20380;-68
2022/01/09 02:23:08;;;;;;;1999.90;999.90;;;;;;;1.34;93.04;162756.22;5043903;28;20388;-69
2022/01/09 02:25:36;;;;;;;1999.90;999.90;;;;;;;1.57;92.63;162816.41;5045120;28;20049;-69
2022/01/09 02:28:04;;;;;;;1999.90;999.90;;;;;;;1.84;92.00;162887.59;5042653;28;20084;-69
2022/01/09 02:30:32;;;;;;;1999.90;999.90;;;;;;;1.65;92.71;162838.28;5046602;28;20090;-69
2022/01/09 02:33:06;;;;;;;1999.90;999.90;;;;;;;1.17;94.41;162709.66;5044930;28;20047;-69
2022/01/09 02:35:34;;;;;;;1999.90;999.90;;;;;;;1.48;93.32;162791.78;5046666;28;20128;-69
2022/01/09 02:38:03;;;;;;;1999.90;999.90;;;;;;;0.96;94.75;162653.56;5050090;28;20045;-69
2022/01/09 02:40:31;;;;;;;1999.90;999.90;;;;;;;1.12;95.68;162696.00;5048352;28;20110;-69
2022/01/09 02:42:57;;;;;;;1999.90;999.90;;;;;;;1.58;93.52;162819.16;5043482;28;20087;-69
2022/01/09 02:45:26;;;;;;;1999.90;999.90;;;;;;;1.52;93.29;162802.69;5048937;28;20342;-70
2022/01/09 02:47:55;;;;;;;1999.90;999.90;;;;;;;1.34;93.04;162756.22;5046857;28;20084;-70
2022/01/09 02:53:35;;;;;;;1999.90;999.90;;;;;;;1.69;92.65;162849.25;5047781;28;20134;-69
2022/01/09 02:55:41;;;;;;;1999.90;999.90;;;;;;;1.90;91.53;162905.38;5040020;28;20353;-69
2022/01/09 02:58:07;;;;;;;1999.90;999.90;;;;;;;2.15;90.77;162971.09;5049308;28;20118;-69
2022/01/09 03:00:38;;;;;;;1999.90;999.90;;;;;;;2.29;89.55;163008.06;5051192;28;20106;-67
2022/01/09 03:03:05;;;;;;;1999.90;999.90;;;;;;;2.10;90.10;162958.78;5050176;28;20506;-67
2022/01/09 03:05:32;;;;;;;1999.90;999.90;;;;;;;2.27;89.65;163003.97;5049230;28;20049;-67
2022/01/09 03:07:59;;;;;;;1999.90;999.90;;;;;;;2.13;90.15;162965.66;5050202;28;20091;-68
2022/01/09 03:10:26;;;;;;;1999.90;999.90;;;;;;;2.08;90.10;162953.31;5050014;28;20080;-68
2022/01/09 03:12:56;;;;;;;1999.90;999.90;;;;;;;2.03;90.37;162939.59;5048594;28;20099;-67
2022/01/09 03:15:23;;;;;;;1999.90;999.90;;;;;;;2.13;90.27;162965.66;5050442;28;20310;-68
2022/01/09 03:17:49;;;;;;;1999.90;999.90;;;;;;;2.17;89.99;162976.56;5033104;28;20049;-68
2022/01/09 03:20:19;;;;;;;1999.90;999.90;;;;;;;2.17;89.89;162975.22;5048391;28;20057;-68
2022/01/09 03:22:46;;;;;;;1999.90;999.90;;;;;;;2.25;90.01;162997.16;5048871;28;20068;-68
2022/01/09 03:25:14;;;;;;;1999.90;999.90;;;;;;;2.42;89.46;163043.66;5048960;28;20087;-68
2022/01/09 03:27:45;;;;;;;1999.90;999.90;;;;;;;2.23;89.70;162991.63;5049508;28;20114;-68
2022/01/09 03:30:12;;;;;;;1999.90;999.90;;;;;;;2.18;89.85;162979.31;5050104;28;20103;-68
2022/01/09 03:32:40;;;;;;;1999.90;999.90;;;;;;;2.15;89.88;162969.75;5048514;28;20045;-68
2022/01/09 03:35:13;;;;;;;1999.90;999.90;;;;;;;2.12;90.31;162962.91;5048182;28;20088;-67
2022/01/09 03:37:41;;;;;;;1999.90;999.90;;;;;;;2.26;89.65;163001.25;5049115;28;20095;-68
2022/01/09 03:40:10;;;;;;;1999.90;999.90;;;;;;;1.73;90.70;162860.22;5049151;28;20084;-68
2022/01/09 03:42:37;;;;;;;1999.90;999.90;;;;;;;1.84;90.50;162887.59;5045637;28;20165;-68
2022/01/09 03:45:05;;;;;;;1999.90;999.90;;;;;;;1.98;90.39;162925.94;5052800;28;20819;-68
2022/01/09 03:47:32;;;;;;;1999.90;999.90;;;;;;;1.98;89.66;162925.94;5048266;28;20581;-68
2022/01/09 03:49:59;;;;;;;1999.90;999.90;;;;;;;2.24;88.64;162994.38;5046091;28;20128;-68
2022/01/09 03:52:27;;;;;;;1999.90;999.90;;;;;;;2.15;88.00;162971.09;5051339;28;20453;-68
2022/01/09 03:54:55;;;;;;;1999.90;999.90;;;;;;;1.82;87.99;162882.13;5048545;28;20049;-68
2022/01/09 03:57:22;;;;;;;1999.90;999.90;;;;;;;2.02;87.41;162936.84;5047785;28;20598;-68
2022/01/09 03:59:49;;;;;;;1999.90;999.90;;;;;;;2.03;86.78;162939.59;5048149;28;20224;-68
2022/01/09 04:02:15;;;;;;;1999.90;999.90;;;;;;;2.33;86.25;163019.03;5049606;28;20479;-68
2022/01/09 04:04:42;;;;;;;1999.90;999.90;;;;;;;2.28;84.85;163005.34;5049545;28;20053;-68
2022/01/09 04:07:10;;;;;;;1999.90;999.90;;;;;;;2.26;84.60;162999.84;5049322;28;20100;-68
2022/01/09 04:09:40;;;;;;;1999.90;999.90;;;;;;;2.11;85.81;162961.53;5049450;28;20106;-68
2022/01/09 04:12:29;;;;;;;1999.90;999.90;;;;;;;2.11;85.01;162960.13;5048238;28;20413;-68
2022/01/09 04:14:56;;;;;;;1999.90;999.90;;;;;;;2.04;85.11;162942.38;5043653;28;20052;-67
2022/01/09 04:17:35;;;;;;;1999.90;999.90;;;;;;;2.03;84.56;162939.59;5048712;28;20127;-68
2022/01/09 04:20:03;;;;;;;1999.90;999.90;;;;;;;2.02;84.64;162936.84;5048327;28;20364;-68
2022/01/09 04:22:30;;;;;;;1999.90;999.90;;;;;;;2.11;84.13;162961.53;5048932;28;20088;-68
2022/01/09 04:24:56;;;;;;;1999.90;999.90;;;;;;;2.23;83.23;162991.63;5050015;28;20501;-67
2022/01/09 04:27:23;;;;;;;1999.90;999.90;;;;;;;2.23;82.84;162991.63;5050089;28;20049;-68
2022/01/09 04:29:49;;;;;;;1999.90;999.90;;;;;;;2.25;82.73;162997.16;5048057;28;20080;-68
2022/01/09 04:32:16;;;;;;;1999.90;999.90;;;;;;;2.15;82.94;162969.75;5049044;28;20085;-68
2022/01/09 04:34:43;;;;;;;1999.90;999.90;;;;;;;2.00;82.86;162931.41;5049581;28;20458;-67
2022/01/09 04:37:10;;;;;;;1999.90;999.90;;;;;;;1.89;83.27;162902.66;5047176;28;20051;-67
2022/01/09 04:39:37;;;;;;;1999.90;999.90;;;;;;;2.04;83.59;162940.97;5047320;28;20076;-68
2022/01/09 04:42:04;;;;;;;1999.90;999.90;;;;;;;1.88;83.16;162899.91;5049518;28;20041;-68
2022/01/09 04:44:30;;;;;;;1999.90;999.90;;;;;;;1.47;85.17;162789.03;5045938;28;20355;-68
2022/01/09 04:47:03;;;;;;;1999.90;999.90;;;;;;;1.64;84.02;162834.19;5045144;28;20102;-68
2022/01/09 04:49:36;;;;;;;1999.90;999.90;;;;;;;1.79;83.88;162873.88;5048301;28;20048;-68
2022/01/09 04:52:05;;;;;;;1999.90;999.90;;;;;;;1.76;83.78;162868.41;5045460;28;20351;-68
2022/01/09 04:54:31;;;;;;;1999.90;999.90;;;;;;;1.87;83.68;162895.81;5045459;28;20073;-68
2022/01/09 04:57:01;;;;;;;1999.90;999.90;;;;;;;1.62;84.33;162830.06;5046358;28;20095;-68
2022/01/09 04:59:28;;;;;;;1999.90;999.90;;;;;;;1.55;84.27;162812.31;5045954;28;20126;-68
2022/01/09 05:01:55;;;;;;;1999.90;999.90;;;;;;;1.45;84.29;162784.94;5045209;28;20307;-68
2022/01/09 05:04:21;;;;;;;1999.90;999.90;;;;;;;1.60;84.20;162824.63;5046741;28;20041;-68
2022/01/09 05:06:48;;;;;;;1999.90;999.90;;;;;;;1.58;83.54;162820.50;5046853;28;20053;-68
2022/01/09 05:09:15;;;;;;;1999.90;999.90;;;;;;;1.64;83.99;162834.19;5045429;28;20466;-68
2022/01/09 05:11:42;;;;;;;1999.90;999.90;;;;;;;1.60;83.42;162824.63;5046292;28;20076;-67
2022/01/09 05:14:08;;;;;;;1999.90;999.90;;;;;;;1.83;82.60;162884.84;5046632;28;20053;-68
2022/01/09 05:16:35;;;;;;;1999.90;999.90;;;;;;;1.74;82.68;162861.56;5046213;28;20056;-68
2022/01/09 05:19:05;;;;;;;1999.90;999.90;;;;;;;1.57;83.71;162817.75;5045935;28;20091;-68
2022/01/09 05:21:32;;;;;;;1999.90;999.90;;;;;;;1.56;83.50;162813.66;5044148;28;20087;-68
2022/01/09 05:23:59;;;;;;;1999.90;999.90;;;;;;;1.22;84.22;162724.72;5045482;28;20041;-68
2022/01/09 05:26:25;;;;;;;1999.90;999.90;;;;;;;1.46;83.40;162786.28;5047065;28;20044;-68
2022/01/09 05:28:52;;;;;;;1999.90;999.90;;;;;;;1.27;84.00;162737.03;5048536;28;20045;-68
2022/01/09 05:31:19;;;;;;;1999.90;999.90;;;;;;;1.30;83.74;162745.25;5045468;28;20079;-68
2022/01/09 05:33:45;;;;;;;1999.90;999.90;;;;;;;1.29;83.94;162741.13;5042773;28;20105;-68
2022/01/09 05:36:12;;;;;;;1999.90;999.90;;;;;;;1.25;84.16;162731.59;5046727;28;20053;-68
2022/01/09 05:38:38;;;;;;;1999.90;999.90;;;;;;;1.03;85.03;162674.09;5045947;28;20083;-68
2022/01/09 05:41:05;;;;;;;1999.90;999.90;;;;;;;1.20;84.65;162719.22;5047294;28;20417;-68
2022/01/09 05:43:32;;;;;;;1999.90;999.90;;;;;;;1.35;84.11;162757.56;5044977;28;20118;-68
2022/01/09 05:45:59;;;;;;;1999.90;999.90;;;;;;;1.48;82.91;162791.78;5044976;28;20061;-68
2022/01/09 05:48:26;;;;;;;1999.90;999.90;;;;;;;1.32;83.55;162750.69;5049058;28;20048;-68
2022/01/09 05:50:52;;;;;;;1999.90;999.90;;;;;;;1.30;83.45;162743.91;5047627;28;20138;-68
2022/01/09 05:53:19;;;;;;;1999.90;999.90;;;;;;;1.19;83.27;162716.53;5045924;28;20592;-68
2022/01/09 05:55:45;;;;;;;1999.90;999.90;;;;;;;1.14;83.03;162701.47;5046620;28;20106;-68
2022/01/09 05:58:12;;;;;;;1999.90;999.90;;;;;;;1.17;83.04;162711.03;5046918;28;20435;-68
2022/01/09 06:00:38;;;;;;;1999.90;999.90;;;;;;;1.13;82.97;162700.13;5045147;28;20051;-68
2022/01/09 06:03:05;;;;;;;1999.90;999.90;;;;;;;1.21;82.18;162720.63;5046072;28;20047;-68
2022/01/09 06:05:32;;;;;;;1999.90;999.90;;;;;;;0.68;84.01;162579.69;5047097;28;20110;-68
2022/01/09 06:07:58;;;;;;;1999.90;999.90;;;;;;;0.88;83.25;162633.06;5045767;28;20141;-68
2022/01/09 06:10:25;;;;;;;1999.90;999.90;;;;;;;0.70;84.08;162585.19;5046328;28;20107;-68
2022/01/09 06:12:52;;;;;;;1999.90;999.90;;;;;;;0.61;83.83;162560.53;5050861;28;20040;-68
2022/01/09 06:15:19;;;;;;;1999.90;999.90;;;;;;;0.41;84.54;162507.22;5048226;28;20049;-68
2022/01/09 06:17:45;;;;;;;1999.90;999.90;;;;;;;0.13;85.80;162433.38;5050542;28;20107;-68
2022/01/09 06:20:13;;;;;;;1999.90;999.90;;;;;;;0.50;84.39;162531.81;5051376;28;20331;-68
2022/01/09 06:22:42;;;;;;;1999.90;999.90;;;;;;;0.57;83.89;162550.97;5049728;28;20392;-68
2022/01/09 06:25:09;;;;;;;1999.90;999.90;;;;;;;0.53;83.43;162541.38;5049764;28;20480;-68
2022/01/09 06:27:36;;;;;;;1999.90;999.90;;;;;;;0.41;84.39;162507.22;5051469;28;20087;-67
2022/01/09 06:30:04;;;;;;;1999.90;999.90;;;;;;;0.38;83.97;162499.03;5049902;28;20105;-68
2022/01/09 06:32:31;;;;;;;1999.90;999.90;;;;;;;0.19;84.12;162449.75;5050181;28;20323;-68
2022/01/09 06:34:58;;;;;;;1999.90;999.90;;;;;;;0.28;84.54;162474.41;5050531;28;20084;-68
2022/01/09 06:37:24;;;;;;;1999.90;999.90;;;;;;;0.33;83.59;162488.06;5050151;28;20057;-68
2022/01/09 06:39:51;;;;;;;1999.90;999.90;;;;;;;0.27;84.29;162471.66;5049871;28;20049;-68
2022/01/09 06:42:17;;;;;;;1999.90;999.90;;;;;;;0.24;84.56;162463.47;5050538;28;20355;-68
2022/01/09 06:44:44;;;;;;;1999.90;999.90;;;;;;;0.11;84.59;162429.25;5049664;28;20417;-68
2022/01/09 06:47:11;;;;;;;1999.90;999.90;;;;;;;0.16;84.63;162442.97;5050235;28;20053;-68
2022/01/09 06:49:38;;;;;;;1999.90;999.90;;;;;;;0.50;83.07;162533.19;5048549;28;20076;-68
2022/01/09 06:52:05;;;;;;;1999.90;999.90;;;;;;;0.43;83.00;162514.06;5049838;28;20426;-68
2022/01/09 06:54:31;;;;;;;1999.90;999.90;;;;;;;0.39;83.72;162503.13;5049134;28;20040;-68
2022/01/09 06:56:58;;;;;;;1999.90;999.90;;;;;;;0.53;83.05;162540.03;5049900;28;20434;-68
2022/01/09 06:59:24;;;;;;;1999.90;999.90;;;;;;;0.50;82.92;162531.81;5050521;28;20442;-68
2022/01/09 07:01:51;;;;;;;1999.90;999.90;;;;;;;0.58;83.13;162552.34;5048642;28;20053;-68
2022/01/09 07:04:18;;;;;;;1999.90;999.90;;;;;;;0.54;82.66;162542.78;5050175;28;20077;-68
2022/01/09 07:06:45;;;;;;;1999.90;999.90;;;;;;;0.53;83.15;162540.03;5050004;28;20438;-68
2022/01/09 07:09:11;;;;;;;1999.90;999.90;;;;;;;0.45;83.50;162518.16;5049042;28;20106;-69
2022/01/09 07:11:38;;;;;;;1999.90;999.90;;;;;;;0.29;83.85;162477.13;5049566;28;20091;-68
2022/01/09 07:14:04;;;;;;;1999.90;999.90;;;;;;;0.01;84.54;162400.56;5050179;28;20500;-68
2022/01/09 07:16:31;;;;;;;1999.90;999.90;;;;;;;0.23;84.86;162460.72;5049032;28;20049;-68
2022/01/09 07:18:58;;;;;;;1999.90;999.90;;;;;;;0.46;84.04;162520.88;5049599;28;20080;-68
2022/01/09 07:21:24;;;;;;;1999.90;999.90;;;;;;;0.43;84.13;162512.66;5049067;28;20076;-68
2022/01/09 07:23:51;;;;;;;1999.90;999.90;;;;;;;0.48;83.76;162527.72;5048821;28;20106;-68
2022/01/09 07:26:17;;;;;;;1999.90;999.90;;;;;;;0.59;83.58;162555.09;5049331;28;20445;-68
2022/01/09 07:28:44;;;;;;;1999.90;999.90;;;;;;;0.67;82.87;162578.34;5050043;28;20132;-68
2022/01/09 07:31:10;;;;;;;1999.90;999.90;;;;;;;0.25;84.30;162466.16;5048523;28;20087;-68
2022/01/09 07:33:37;;;;;;;1999.90;999.90;;;;;;;0.12;84.44;162432.00;5049099;28;20370;-69
2022/01/09 07:36:04;;;;;;;1999.90;999.90;;;;;;;0.42;84.24;162509.97;5044832;28;20085;-68
2022/01/09 07:38:30;;;;;;;1999.90;999.90;;;;;;;0.17;84.58;162444.31;5048688;28;20079;-68
2022/01/09 07:40:57;;;;;;;1999.90;999.90;;;;;;;0.42;84.52;162509.97;5048639;28;20049;-68
2022/01/09 07:43:24;;;;;;;1999.90;999.90;;;;;;;0.42;84.18;162509.97;5053108;28;20399;-68
2022/01/09 07:45:50;;;;;;;1999.90;999.90;;;;;;;0.28;84.94;162474.41;5048329;28;20131;-68
2022/01/09 07:48:17;;;;;;;1999.90;999.90;;;;;;;0.35;84.61;162493.53;5049257;28;20091;-68
2022/01/09 07:50:43;;;;;;;1999.90;999.90;;;;;;;0.60;83.84;162559.19;5049744;28;20397;-68
2022/01/09 07:53:10;;;;;;;1999.90;999.90;;;;;;;0.61;84.14;162561.94;5047732;28;20085;-68
2022/01/09 07:55:37;;;;;;;1999.90;999.90;;;;;;;0.76;82.91;162600.19;5048753;28;20053;-69
2022/01/09 07:58:04;;;;;;;1999.90;999.90;;;;;;;0.33;83.63;162488.06;5049714;28;20049;-68
2022/01/09 08:00:30;;;;;;;1999.90;999.90;;;;;;;0.40;84.62;162504.47;5047686;28;20454;-68
2022/01/09 08:02:57;;;;;;;1999.90;999.90;;;;;;;0.18;85.41;162447.06;5048762;28;20072;-68
2022/01/09 08:05:24;;;;;;;1999.90;999.90;;;;;;;0.43;84.34;162512.66;5049675;28;20053;-68
2022/01/09 08:07:50;;;;;;;1999.90;999.90;;;;;;;0.84;82.99;162623.47;5048030;28;20118;-68
2022/01/09 08:10:17;;;;;;;1999.90;999.90;;;;;;;0.66;83.36;162575.59;5048080;28;20056;-68
2022/01/09 08:12:44;;;;;;;1999.90;999.90;;;;;;;0.58;83.93;162553.72;5049596;28;20049;-68
2022/01/09 08:15:11;;;;;;;1999.90;999.90;;;;;;;0.65;83.96;162571.50;5047871;28;20044;-69
2022/01/09 08:17:38;;;;;;;1999.90;999.90;;;;;;;0.57;84.13;162549.63;5047871;28;20056;-68
2022/01/09 08:20:05;;;;;;;1999.90;999.90;;;;;;;0.19;85.26;162449.75;5048668;28;20048;-68
2022/01/09 08:22:33;;;;;;;1999.90;999.90;;;;;;;0.32;85.39;162485.31;5047117;28;20098;-68
2022/01/09 08:24:59;;;;;;;1999.90;999.90;;;;;;;0.30;85.28;162479.88;5047422;28;20111;-69
2022/01/09 08:27:26;;;;;;;1999.90;999.90;;;;;;;0.55;84.26;162544.13;5049070;28;20418;-68
2022/01/09 08:29:53;;;;;;;1999.90;999.90;;;;;;;-0.01;86.33;162397.81;5046635;28;20576;-68
2022/01/09 08:32:19;;;;;;;1999.90;999.90;;;;;;;0.65;84.55;162572.84;5047405;28;20481;-68
2022/01/09 08:34:46;;;;;;;1999.90;999.90;;;;;;;0.52;84.84;162537.28;5048369;28;20044;-68
2022/01/09 08:37:12;;;;;;;1999.90;999.90;;;;;;;0.90;83.55;162637.16;5046729;28;20137;-68
2022/01/09 08:39:41;;;;;;;1999.90;999.90;;;;;;;1.15;82.50;162704.22;5047951;28;20049;-68
2022/01/09 08:42:08;;;;;;;1999.90;999.90;;;;;;;1.16;81.71;162708.31;5050412;28;20079;-68
2022/01/09 08:44:35;;;;;;;1999.90;999.90;;;;;;;1.44;81.25;162782.19;5048373;28;20041;-68
2022/01/09 08:47:03;;;;;;;1999.90;999.90;;;;;;;1.06;82.26;162680.94;5047079;28;20107;-68
2022/01/09 08:49:30;;;;;;;1999.90;999.90;;;;;;;0.96;82.43;162654.94;5048105;28;20055;-68
2022/01/09 08:51:56;;;;;;;1999.90;999.90;;;;;;;1.65;80.21;162838.28;5047283;28;20111;-68
2022/01/09 08:54:23;;;;;;;1999.90;999.90;;;;;;;1.85;78.85;162890.34;5046976;28;20214;-68
2022/01/09 08:56:50;;;;;;;1999.90;999.90;;;;;;;1.33;80.95;162752.09;5047458;28;20146;-68
2022/01/09 08:59:16;;;;;;;1999.90;999.90;;;;;;;1.55;80.02;162812.31;5048069;28;20052;-68
2022/01/09 09:01:44;;;;;;;1999.90;999.90;;;;;;;2.14;78.48;162967.00;5045738;28;20053;-68
2022/01/09 09:04:12;;;;;;;1999.90;999.90;;;;;;;1.90;78.32;162904.00;5047143;28;20047;-68
2022/01/09 09:06:39;;;;;;;1999.90;999.90;;;;;;;2.02;78.09;162935.50;5047162;28;20134;-68
2022/01/09 09:09:07;;;;;;;1999.90;999.90;;;;;;;2.10;77.73;162957.44;5046091;28;20424;-69
2022/01/09 09:11:34;;;;;;;1999.90;999.90;;;;;;;2.04;78.07;162942.38;5048140;28;20110;-69
2022/01/09 09:14:02;;;;;;;1999.90;999.90;;;;;;;1.90;78.13;162904.00;5047811;28;20103;-69
2022/01/09 09:16:29;;;;;;;1999.90;999.90;;;;;;;2.00;77.76;162931.41;5046324;28;20329;-68
2022/01/09 09:18:56;;;;;;;1999.90;999.90;;;;;;;1.81;77.78;162880.72;5046405;28;20087;-68
2022/01/09 09:21:22;;;;;;;1999.90;999.90;;;;;;;1.72;78.43;162857.47;5047462;28;20122;-68
2022/01/09 09:23:49;;;;;;;1999.90;999.90;;;;;;;2.05;77.24;162945.06;5046707;28;20049;-68
2022/01/09 09:26:18;;;;;;;1999.90;999.90;;;;;;;1.93;77.21;162912.22;5047587;28;20327;-69
2022/01/09 09:28:45;;;;;;;1999.90;999.90;;;;;;;2.63;75.70;163099.88;5046995;28;20045;-68
2022/01/09 09:31:11;;;;;;;1999.90;999.90;;;;;;;2.85;74.43;163156.03;5045187;28;20084;-69
2022/01/09 09:33:38;;;;;;;1999.90;999.90;;;;;;;2.62;75.06;163097.09;5048004;28;20404;-69
2022/01/09 09:36:05;;;;;;;1999.90;999.90;;;;;;;2.79;74.71;163142.28;5046826;28;20331;-69
2022/01/09 09:38:31;;;;;;;1999.90;999.90;;;;;;;2.71;74.35;163120.41;5045103;28;20052;-68
2022/01/09 09:40:59;;;;;;;1999.90;999.90;;;;;;;3.04;74.20;163206.69;5037612;28;20417;-69
2022/01/09 09:43:26;;;;;;;1999.90;999.90;;;;;;;3.35;73.02;163290.31;5048715;28;20084;-69
2022/01/09 09:45:53;;;;;;;1999.90;999.90;;;;;;;3.28;72.51;163272.47;5046848;28;20041;-69
2022/01/09 09:48:20;;;;;;;1999.90;999.90;;;;;;;3.70;71.11;163383.50;5048092;28;20053;-69
2022/01/09 09:50:47;;;;;;;1999.90;999.90;;;;;;;3.80;70.47;163409.56;5047919;28;20053;-69
2022/01/09 09:53:14;;;;;;;1999.90;999.90;;;;;;;4.23;69.54;163524.72;5047547;28;20049;-69
2022/01/09 09:55:41;;;;;;;1999.90;999.90;;;;;;;3.97;68.81;163454.78;5048300;28;20197;-68
2022/01/09 09:58:07;;;;;;;1999.90;999.90;;;;;;;3.91;69.08;163438.34;5049169;28;20396;-68
2022/01/09 10:00:35;;;;;;;1999.90;999.90;;;;;;;3.78;69.04;163404.03;5046970;28;20048;-68
2022/01/09 10:03:03;;;;;;;1999.90;999.90;;;;;;;3.70;69.83;163384.84;5046732;28;20091;-68
2022/01/09 10:05:38;;;;;;;1999.90;999.90;;;;;;;4.02;68.38;163469.88;5048647;28;20434;-69
2022/01/09 10:08:07;;;;;;;1999.90;999.90;;;;;;;4.03;67.61;163472.63;5047788;28;20134;-68
2022/01/09 10:10:36;;;;;;;1999.90;999.90;;;;;;;4.46;66.95;163586.41;5047748;28;20388;-68
2022/01/09 10:13:10;;;;;;;1999.90;999.90;;;;;;;4.47;65.63;163589.19;5048537;28;20053;-68
2022/01/09 10:15:48;;;;;;;1999.90;999.90;;;;;;;4.50;66.37;163597.41;5047799;28;20099;-68
2022/01/09 10:18:37;;;;;;;1999.90;999.90;;;;;;;4.61;64.64;163626.19;5047516;28;20122;-69
2022/01/09 10:21:10;;;;;;;1999.90;999.90;;;;;;;4.49;65.30;163594.66;5061350;28;20095;-69
2022/01/09 10:24:00;;;;;;;1999.90;999.90;;;;;;;4.69;64.67;163646.75;5049513;28;20095;-68
2022/01/09 10:26:29;;;;;;;1999.90;999.90;;;;;;;4.44;64.63;163579.53;5046890;28;20057;-68
2022/01/09 10:28:56;;;;;;;1999.90;999.90;;;;;;;4.97;63.39;163722.22;5047435;28;20053;-69
2022/01/09 10:31:23;;;;;;;1999.90;999.90;;;;;;;4.47;63.64;163589.19;5049477;28;20420;-68
2022/01/09 10:33:57;;;;;;;1999.90;999.90;;;;;;;5.08;62.30;163751.06;5048299;28;20053;-68
2022/01/09 10:36:41;;;;;;;1999.90;999.90;;;;;;;4.51;62.21;163598.75;5047010;28;20072;-68
2022/01/09 10:39:14;;;;;;;1999.90;999.90;;;;;;;4.44;62.17;163579.53;5038680;28;20306;-68
2022/01/09 10:41:51;;;;;;;1999.90;999.90;;;;;;;4.90;61.80;163704.41;5048879;28;20052;-68
2022/01/09 10:44:27;;;;;;;1999.90;999.90;;;;;;;4.99;61.41;163726.31;5047263;28;20130;-69
2022/01/09 10:47:03;;;;;;;1999.90;999.90;;;;;;;5.00;61.63;163729.09;5045947;28;20102;-69
2022/01/09 10:49:51;;;;;;;1999.90;999.90;;;;;;;5.23;62.03;163790.84;5048290;28;20056;-69
2022/01/09 10:52:26;;;;;;;1999.90;999.90;;;;;;;4.87;62.50;163694.81;5047690;28;20045;-69
2022/01/09 10:55:03;;;;;;;1999.90;999.90;;;;;;;4.73;61.61;163659.16;5060811;28;20052;-69
2022/01/09 10:57:37;;;;;;;1999.90;999.90;;;;;;;4.97;61.81;163722.22;5049239;28;20142;-69
2022/01/09 11:00:13;;;;;;;1999.90;999.90;;;;;;;4.29;62.46;163539.78;5052454;28;20075;-68